createdAt,value
2024-02-05T00:01:40.310Z,87.23
2024-02-05T00:04:43.097Z,86.72
2024-02-05T00:07:45.143Z,87.45
2024-02-05T00:10:47.609Z,87.62
2024-02-05T00:13:49.464Z,89.01
2024-02-05T00:16:51.210Z,89.42
2024-02-05T00:19:53.773Z,89.24
2024-02-05T00:22:56.090Z,89.74
2024-02-05T00:25:57.866Z,90.31
2024-02-05T00:29:00.765Z,91.12
2024-02-05T00:32:02.481Z,91.49
2024-02-05T00:35:04.737Z,90.69
2024-02-05T00:38:07.033Z,89.09
2024-02-05T00:41:09.511Z,88.76
2024-02-05T00:44:11.811Z,91.10
2024-02-05T00:47:13.699Z,92.12
2024-02-05T00:50:15.442Z,93.63
2024-02-05T00:53:17.280Z,94.30
2024-02-05T00:56:19.634Z,94.78
2024-02-05T00:59:21.443Z,95.06
2024-02-05T01:02:24.442Z,94.81
2024-02-05T01:05:26.915Z,94.63
2024-02-05T01:08:28.913Z,94.40
2024-02-05T01:11:30.683Z,95.05
2024-02-05T01:14:33.952Z,94.30
2024-02-05T01:17:35.780Z,94.43
2024-02-05T01:20:37.550Z,94.71
2024-02-05T01:23:39.456Z,94.03
2024-02-05T01:26:41.212Z,93.11
2024-02-05T01:29:43.655Z,93.41
2024-02-05T01:32:45.536Z,93.42
2024-02-05T01:35:47.287Z,94.05
2024-02-05T01:38:49.790Z,93.98
2024-02-05T01:41:51.655Z,94.92
2024-02-05T01:44:54.143Z,94.78
2024-02-05T01:47:56.231Z,95.98
2024-02-05T01:50:58.711Z,96.68
2024-02-05T01:54:00.553Z,97.79
2024-02-05T01:57:07.893Z,98.68
2024-02-05T02:00:15.855Z,100.00
2024-02-05T02:03:18.255Z,100.00
2024-02-05T02:06:21.819Z,100.00
2024-02-05T02:09:24.736Z,100.00
2024-02-05T02:12:26.936Z,100.00
2024-02-05T02:15:28.945Z,100.00
2024-02-05T02:18:34.237Z,100.00
2024-02-05T02:21:36.215Z,100.00
2024-02-05T02:24:38.094Z,100.00
2024-02-05T02:27:42.442Z,100.00
2024-02-05T02:30:45.006Z,100.00
2024-02-05T02:33:57.399Z,100.00
2024-02-05T02:37:06.804Z,100.00
2024-02-05T02:40:15.793Z,100.00
2024-02-05T02:43:19.440Z,100.00
2024-02-05T02:46:23.048Z,100.00
2024-02-05T02:49:24.957Z,100.00
2024-02-05T02:52:26.909Z,100.00
2024-02-05T02:55:28.993Z,100.00
2024-02-05T02:58:30.821Z,100.00
2024-02-05T03:01:32.713Z,100.00
2024-02-05T03:04:34.566Z,100.00
2024-02-05T03:07:36.499Z,100.00
2024-02-05T03:10:38.338Z,100.00
2024-02-05T03:13:40.035Z,100.00
2024-02-05T03:16:41.765Z,100.00
2024-02-05T03:19:43.612Z,100.00
2024-02-05T03:22:52.957Z,100.00
2024-02-05T03:26:00.312Z,100.00
2024-02-05T03:29:02.081Z,100.00
2024-02-05T03:32:04.894Z,100.00
2024-02-05T03:35:08.608Z,100.00
2024-02-05T03:38:10.461Z,100.00
2024-02-05T03:41:12.248Z,100.00
2024-02-05T03:44:14.028Z,100.00
2024-02-05T03:47:15.760Z,100.00
2024-02-05T03:50:18.554Z,100.00
2024-02-05T03:53:20.576Z,100.00
2024-02-05T03:56:22.382Z,100.00
2024-02-05T03:59:24.110Z,100.00
2024-02-05T04:02:28.210Z,100.00
2024-02-05T04:05:32.756Z,100.00
2024-02-05T04:08:35.007Z,100.00
2024-02-05T04:11:40.075Z,100.00
2024-02-05T04:14:41.841Z,100.00
2024-02-05T04:17:43.824Z,100.00
2024-02-05T04:20:45.614Z,100.00
2024-02-05T04:23:47.380Z,100.00
2024-02-05T04:26:49.106Z,100.00
2024-02-05T04:29:51.004Z,100.00
2024-02-05T04:32:52.781Z,100.00
2024-02-05T04:35:55.081Z,100.00
2024-02-05T04:38:56.850Z,100.00
2024-02-05T04:41:58.676Z,100.00
2024-02-05T04:45:00.484Z,100.00
2024-02-05T04:48:02.304Z,100.00
2024-02-05T04:51:10.966Z,100.00
2024-02-05T04:54:12.835Z,100.00
2024-02-05T04:57:14.573Z,100.00
2024-02-05T05:00:17.356Z,100.00
2024-02-05T05:03:19.115Z,100.00
2024-02-05T05:06:20.926Z,100.00
2024-02-05T05:09:23.328Z,100.00
2024-02-05T05:12:25.217Z,100.00
2024-02-05T05:15:29.049Z,100.00
2024-02-05T05:18:39.001Z,100.00
2024-02-05T05:21:41.002Z,100.00
2024-02-05T05:24:42.877Z,100.00
2024-02-05T05:27:44.744Z,100.00
2024-02-05T05:30:46.589Z,100.00
2024-02-05T05:33:48.623Z,100.00
2024-02-05T05:36:50.474Z,100.00
2024-02-05T05:39:52.714Z,100.00
2024-02-05T05:42:56.616Z,100.00
2024-02-05T05:45:59.035Z,100.00
2024-02-05T05:49:00.890Z,100.00
2024-02-05T05:52:02.767Z,100.00
2024-02-05T05:55:04.984Z,100.00
2024-02-05T05:58:12.788Z,100.00
2024-02-05T06:01:14.766Z,100.00
2024-02-05T06:04:16.727Z,100.00
2024-02-05T06:07:19.488Z,100.00
2024-02-05T06:10:21.944Z,100.00
2024-02-05T06:13:24.012Z,100.00
2024-02-05T06:16:25.942Z,100.00
2024-02-05T06:19:27.899Z,97.43
2024-02-05T06:22:29.741Z,98.29
2024-02-05T06:25:31.558Z,95.00
2024-02-05T06:28:33.518Z,95.01
2024-02-05T06:31:35.366Z,95.50
2024-02-05T06:34:37.295Z,94.93
2024-02-05T06:37:39.248Z,92.92
2024-02-05T06:40:41.110Z,92.40
2024-02-05T06:43:43.074Z,91.95
2024-02-05T06:46:45.969Z,90.98
2024-02-05T06:49:47.889Z,90.89
2024-02-05T06:52:50.216Z,90.63
2024-02-05T06:55:52.054Z,90.22
2024-02-05T06:58:53.883Z,91.03
2024-02-05T07:02:20.629Z,90.39
2024-02-05T07:05:24.372Z,91.60
2024-02-05T07:08:26.435Z,91.21
2024-02-05T07:11:28.403Z,91.41
2024-02-05T07:14:30.232Z,90.87
2024-02-05T07:17:34.142Z,90.93
2024-02-05T07:20:35.995Z,91.27
2024-02-05T07:23:39.127Z,91.87
2024-02-05T07:26:41.115Z,90.88
2024-02-05T07:29:43.650Z,91.82
2024-02-05T07:32:45.991Z,92.12
2024-02-05T07:35:48.165Z,92.51
2024-02-05T07:38:50.292Z,92.32
2024-02-05T07:41:52.122Z,92.52
2024-02-05T07:44:53.995Z,93.24
2024-02-05T07:47:55.819Z,93.53
2024-02-05T07:50:57.739Z,93.69
2024-02-05T07:53:59.710Z,94.25
2024-02-05T07:57:04.208Z,94.80
2024-02-05T08:00:06.773Z,95.05
2024-02-05T08:03:08.715Z,95.55
2024-02-05T08:06:19.637Z,95.18
2024-02-05T08:09:21.529Z,94.97
2024-02-05T08:12:23.631Z,94.53
2024-02-05T08:15:25.493Z,93.13
2024-02-05T08:18:27.231Z,92.82
2024-02-05T08:21:29.081Z,92.15
2024-02-05T08:24:30.933Z,91.20
2024-02-05T08:27:32.725Z,90.90
2024-02-05T08:30:34.555Z,89.39
2024-02-05T08:33:36.440Z,88.95
2024-02-05T08:36:38.294Z,89.51
2024-02-05T08:39:40.133Z,88.23
2024-02-05T08:42:46.793Z,88.25
2024-02-05T08:45:51.555Z,87.30
2024-02-05T08:48:53.679Z,87.13
2024-02-05T08:51:56.109Z,87.35
2024-02-05T08:54:58.044Z,87.32
2024-02-05T08:58:00.645Z,86.25
2024-02-05T09:01:02.600Z,86.95
2024-02-05T09:04:04.509Z,87.48
2024-02-05T09:07:06.464Z,87.60
2024-02-05T09:10:08.847Z,87.08
2024-02-05T09:13:10.782Z,87.09
2024-02-05T09:16:17.480Z,86.97
2024-02-05T09:19:20.232Z,87.16
2024-02-05T09:22:22.197Z,88.12
2024-02-05T09:25:24.134Z,88.26
2024-02-05T09:28:25.989Z,88.40
2024-02-05T09:31:27.849Z,88.43
2024-02-05T09:34:29.735Z,87.36
2024-02-05T09:37:31.642Z,87.35
2024-02-05T09:40:33.840Z,88.31
2024-02-05T09:43:43.362Z,88.82
2024-02-05T09:46:53.573Z,87.89
2024-02-05T09:49:58.137Z,87.63
2024-02-05T09:53:02.528Z,86.23
2024-02-05T09:56:07.263Z,86.10
2024-02-05T09:59:10.775Z,86.76
2024-02-05T10:02:16.786Z,87.09
2024-02-05T10:05:21.790Z,85.00
2024-02-05T10:08:24.486Z,77.84
2024-02-05T10:11:28.444Z,74.17
2024-02-05T10:14:30.445Z,73.17
2024-02-05T10:17:32.325Z,71.50
2024-02-05T10:20:34.701Z,69.50
2024-02-05T10:23:36.492Z,68.12
2024-02-05T10:26:38.332Z,64.83
2024-02-05T10:29:40.088Z,64.35
2024-02-05T10:32:42.037Z,63.24
2024-02-05T10:35:44.614Z,63.95
2024-02-05T10:38:47.253Z,61.66
2024-02-05T10:41:49.202Z,61.85
2024-02-05T10:44:51.891Z,62.47
2024-02-05T10:47:53.806Z,60.82
2024-02-05T10:50:55.848Z,61.55
2024-02-05T10:53:58.840Z,61.98
2024-02-05T10:57:01.362Z,61.50
2024-02-05T11:00:03.452Z,62.23
2024-02-05T11:03:12.570Z,61.43
2024-02-05T11:06:18.123Z,62.02
2024-02-05T11:09:24.563Z,62.58
2024-02-05T11:12:30.536Z,63.54
2024-02-05T11:15:38.670Z,62.54
2024-02-05T11:18:47.195Z,62.31
2024-02-05T11:21:56.403Z,60.38
2024-02-05T11:24:59.107Z,58.27
2024-02-05T11:28:02.620Z,55.86
2024-02-05T11:31:09.526Z,53.49
2024-02-05T11:34:12.586Z,52.68
2024-02-05T11:37:18.253Z,51.94
2024-02-05T11:40:23.051Z,52.29
2024-02-05T11:43:26.912Z,49.54
2024-02-05T11:46:29.029Z,49.54
2024-02-05T11:49:34.910Z,50.96
2024-02-05T11:52:44.499Z,52.75
2024-02-05T11:55:46.439Z,53.84
2024-02-05T11:58:52.477Z,55.16
2024-02-05T12:01:58.228Z,56.43
2024-02-05T12:05:01.860Z,56.79
2024-02-05T12:08:05.083Z,56.91
2024-02-05T12:11:07.661Z,58.16
2024-02-05T12:14:12.175Z,57.40
2024-02-05T12:17:14.797Z,58.69
2024-02-05T12:20:20.715Z,56.48
2024-02-05T12:23:22.666Z,56.57
2024-02-05T12:26:27.862Z,56.63
2024-02-05T12:29:30.345Z,56.11
2024-02-05T12:32:38.457Z,56.58
2024-02-05T12:36:08.981Z,57.39
2024-02-05T12:39:10.956Z,55.75
2024-02-05T12:42:13.922Z,55.98
2024-02-05T12:45:17.757Z,55.81
2024-02-05T12:48:23.922Z,54.70
2024-02-05T12:51:26.079Z,55.01
2024-02-05T12:54:27.903Z,54.54
2024-02-05T12:57:29.841Z,53.39
2024-02-05T13:00:31.681Z,53.64
2024-02-05T13:03:36.086Z,54.08
2024-02-05T13:06:38.082Z,54.01
2024-02-05T13:09:40.903Z,53.21
2024-02-05T13:12:43.168Z,53.38
2024-02-05T13:15:46.351Z,53.50
2024-02-05T13:18:48.288Z,52.71
2024-02-05T13:21:50.320Z,52.04
2024-02-05T13:24:52.135Z,51.42
2024-02-05T13:27:54.133Z,51.73
2024-02-05T13:30:56.011Z,51.44
2024-02-05T13:33:57.951Z,50.21
2024-02-05T13:37:00.976Z,50.50
2024-02-05T13:40:03.170Z,49.36
2024-02-05T13:43:06.084Z,49.82
2024-02-05T13:46:08.051Z,49.64
2024-02-05T13:49:10.073Z,49.55
2024-02-05T13:52:12.318Z,49.91
2024-02-05T13:55:16.191Z,49.04
2024-02-05T13:58:18.418Z,46.96
2024-02-05T14:01:21.031Z,46.91
2024-02-05T14:04:23.194Z,45.05
2024-02-05T14:07:25.229Z,42.17
2024-02-05T14:10:27.159Z,40.65
2024-02-05T14:13:28.999Z,39.07
2024-02-05T14:16:31.172Z,38.82
2024-02-05T14:19:37.245Z,42.66
2024-02-05T14:22:39.110Z,44.45
2024-02-05T14:25:40.989Z,46.70
2024-02-05T14:28:43.116Z,47.13
2024-02-05T14:31:45.233Z,48.39
2024-02-05T14:34:48.362Z,49.51
2024-02-05T14:37:52.809Z,50.25
2024-02-05T14:40:54.641Z,51.83
2024-02-05T14:43:56.412Z,52.09
2024-02-05T14:46:58.231Z,53.32
2024-02-05T14:50:00.287Z,54.72
2024-02-05T14:53:02.560Z,55.35
2024-02-05T14:56:05.173Z,55.59
2024-02-05T14:59:07.697Z,55.73
2024-02-05T15:02:10.064Z,56.96
2024-02-05T15:05:13.544Z,56.86
2024-02-05T15:08:15.872Z,56.53
2024-02-05T15:11:17.680Z,57.32
2024-02-05T15:14:19.455Z,57.87
2024-02-05T15:17:21.228Z,57.92
2024-02-05T15:20:23.318Z,57.90
2024-02-05T15:23:25.205Z,58.53
2024-02-05T15:26:27.005Z,59.67
2024-02-05T15:29:29.189Z,59.66
2024-02-05T15:32:31.430Z,59.83
2024-02-05T15:35:33.369Z,60.36
2024-02-05T15:38:35.463Z,60.36
2024-02-05T15:41:37.377Z,60.84
2024-02-05T15:44:39.187Z,60.58
2024-02-05T15:47:41.408Z,61.33
2024-02-05T15:50:43.284Z,61.06
2024-02-05T15:53:46.854Z,60.99
2024-02-05T15:56:48.896Z,61.01
2024-02-05T15:59:50.775Z,60.24
2024-02-05T16:02:52.608Z,60.57
2024-02-05T16:05:55.697Z,60.53
2024-02-05T16:08:57.538Z,61.01
2024-02-05T16:11:59.799Z,61.24
2024-02-05T16:15:01.663Z,61.41
2024-02-05T16:18:04.768Z,61.18
2024-02-05T16:21:06.838Z,62.49
2024-02-05T16:24:09.003Z,63.39
2024-02-05T16:27:11.480Z,62.96
2024-02-05T16:30:13.859Z,63.21
2024-02-05T16:33:16.505Z,63.52
2024-02-05T16:36:18.816Z,64.25
2024-02-05T16:39:21.539Z,65.15
2024-02-05T16:42:27.609Z,64.68
2024-02-05T16:45:29.687Z,65.44
2024-02-05T16:48:31.545Z,65.72
2024-02-05T16:51:33.426Z,66.82
2024-02-05T16:54:35.445Z,66.60
2024-02-05T16:57:37.815Z,66.29
2024-02-05T17:00:39.656Z,67.32
2024-02-05T17:03:41.842Z,67.36
2024-02-05T17:06:44.488Z,66.66
2024-02-05T17:09:47.455Z,66.51
2024-02-05T17:12:49.764Z,67.12
2024-02-05T17:15:51.846Z,67.12
2024-02-05T17:18:53.821Z,66.59
2024-02-05T17:21:57.795Z,66.92
2024-02-05T17:25:00.447Z,67.83
2024-02-05T17:28:02.307Z,67.38
2024-02-05T17:31:04.261Z,67.74
2024-02-05T17:34:06.278Z,68.44
2024-02-05T17:37:08.295Z,68.16
2024-02-05T17:40:10.547Z,68.34
2024-02-05T17:43:12.347Z,68.46
2024-02-05T17:46:14.259Z,68.65
2024-02-05T17:49:16.428Z,69.19
2024-02-05T17:52:18.384Z,69.98
2024-02-05T17:55:21.271Z,70.49
2024-02-05T17:58:23.938Z,72.40
2024-02-05T18:01:25.884Z,73.23
2024-02-05T18:04:27.827Z,74.31
2024-02-05T18:07:29.802Z,75.09
2024-02-05T18:10:31.789Z,75.60
2024-02-05T18:13:33.799Z,75.39
2024-02-05T18:16:37.170Z,75.33
2024-02-05T18:19:39.154Z,74.63
2024-02-05T18:22:41.007Z,74.13
2024-02-05T18:25:42.883Z,73.78
2024-02-05T18:28:44.783Z,72.95
2024-02-05T18:31:51.140Z,72.93
2024-02-05T18:34:53.202Z,72.05
2024-02-05T18:37:55.158Z,71.82
2024-02-05T18:41:00.292Z,71.98
2024-02-05T18:44:02.356Z,72.69
2024-02-05T18:47:04.702Z,73.11
2024-02-05T18:50:07.110Z,73.44
2024-02-05T18:53:08.985Z,73.46
2024-02-05T18:56:12.136Z,73.55
2024-02-05T18:59:14.140Z,74.00
2024-02-05T19:02:16.146Z,74.64
2024-02-05T19:05:18.176Z,75.30
2024-02-05T19:08:20.436Z,76.01
2024-02-05T19:11:22.331Z,76.25
2024-02-05T19:14:24.160Z,77.11
2024-02-05T19:17:26.118Z,77.02
2024-02-05T19:20:29.200Z,77.06
2024-02-05T19:23:31.121Z,77.33
2024-02-05T19:26:32.987Z,77.79
2024-02-05T19:29:34.917Z,78.08
2024-02-05T19:32:36.749Z,78.66
2024-02-05T19:35:38.592Z,78.62
2024-02-05T19:38:40.345Z,79.24
2024-02-05T19:41:42.836Z,79.42
2024-02-05T19:44:44.630Z,80.54
2024-02-05T19:47:47.342Z,82.22
2024-02-05T19:50:49.189Z,83.01
2024-02-05T19:53:50.982Z,84.38
2024-02-05T19:56:52.845Z,83.69
2024-02-05T19:59:54.608Z,83.66
2024-02-05T20:02:56.393Z,84.31
2024-02-05T20:05:58.141Z,85.48
2024-02-05T20:09:04.181Z,85.36
2024-02-05T20:12:09.546Z,86.64
2024-02-05T20:15:13.108Z,88.17
2024-02-05T20:18:16.166Z,87.87
2024-02-05T20:21:19.532Z,87.75
2024-02-05T20:24:21.286Z,87.87
2024-02-05T20:27:23.110Z,88.28
2024-02-05T20:30:24.844Z,87.80
2024-02-05T20:33:26.777Z,87.84
2024-02-05T20:36:28.652Z,87.24
2024-02-05T20:39:30.436Z,88.17
2024-02-05T20:42:32.215Z,87.88
2024-02-05T20:45:34.048Z,86.82
2024-02-05T20:48:36.524Z,87.15
2024-02-05T20:51:38.438Z,86.07
2024-02-05T20:54:40.272Z,86.08
2024-02-05T20:57:42.028Z,86.45
2024-02-05T21:00:47.464Z,85.65
2024-02-05T21:03:49.686Z,85.64
2024-02-05T21:06:51.854Z,86.06
2024-02-05T21:09:53.758Z,86.14
2024-02-05T21:12:55.585Z,85.27
2024-02-05T21:15:57.890Z,85.03
2024-02-05T21:18:59.991Z,84.94
2024-02-05T21:22:01.924Z,85.34
2024-02-05T21:25:04.253Z,85.21
2024-02-05T21:28:06.606Z,85.09
2024-02-05T21:31:08.550Z,84.92
2024-02-05T21:34:11.209Z,84.98
2024-02-05T21:37:13.228Z,84.83
2024-02-05T21:40:15.351Z,85.00
2024-02-05T21:43:17.251Z,85.26
2024-02-05T21:46:19.186Z,85.10
2024-02-05T21:49:21.179Z,85.10
2024-02-05T21:52:24.197Z,85.27
2024-02-05T21:55:26.054Z,86.07
2024-02-05T21:58:27.829Z,86.33
2024-02-05T22:01:29.875Z,86.06
2024-02-05T22:04:31.960Z,86.48
2024-02-05T22:07:34.030Z,86.40
2024-02-05T22:10:36.145Z,86.49
2024-02-05T22:13:37.945Z,86.47
2024-02-05T22:16:39.789Z,86.95
2024-02-05T22:19:42.474Z,85.89
2024-02-05T22:22:44.321Z,86.35
2024-02-05T22:25:46.477Z,86.38
2024-02-05T22:28:48.534Z,85.57
2024-02-05T22:31:51.797Z,84.90
2024-02-05T22:34:57.231Z,86.02
2024-02-05T22:37:59.127Z,86.82
2024-02-05T22:41:00.896Z,87.03
2024-02-05T22:44:02.805Z,87.32
2024-02-05T22:47:04.610Z,88.12
2024-02-05T22:50:07.166Z,88.62
2024-02-05T22:53:09.051Z,89.59
2024-02-05T22:56:10.829Z,89.79
2024-02-05T22:59:12.798Z,89.14
2024-02-05T23:02:14.673Z,88.38
2024-02-05T23:05:17.270Z,89.01
2024-02-05T23:08:19.156Z,89.51
2024-02-05T23:11:20.896Z,88.81
2024-02-05T23:14:24.512Z,89.75
2024-02-05T23:17:26.382Z,90.47
2024-02-05T23:20:28.129Z,90.08
2024-02-05T23:23:29.965Z,90.00
2024-02-05T23:26:31.748Z,89.80
2024-02-05T23:29:33.550Z,89.96
2024-02-05T23:32:36.041Z,91.16
2024-02-05T23:35:37.941Z,91.40
2024-02-05T23:38:39.720Z,92.41
2024-02-05T23:41:41.556Z,92.84
2024-02-05T23:44:43.398Z,92.86
2024-02-05T23:47:45.469Z,93.96
2024-02-05T23:50:47.309Z,93.45
2024-02-05T23:53:49.104Z,93.40
2024-02-05T23:56:51.543Z,93.87
2024-02-05T23:59:53.410Z,92.77
